sensor_id;sensor_type;location;lat;lon;timestamp;pressure;altitude;pressure_sealevel;temperature;humidity
69980;BME280;57318;56.232;43.944;2023-06-24T00:02:08;98755.63;;;14.60;63.95
69980;BME280;57318;56.232;43.944;2023-06-24T00:04:34;98747.91;;;14.57;63.63
69980;BME280;57318;56.232;43.944;2023-06-24T00:07:00;98747.06;;;14.56;64.06
69980;BME280;57318;56.232;43.944;2023-06-24T00:09:27;98743.75;;;14.54;63.73
69980;BME280;57318;56.232;43.944;2023-06-24T00:11:57;98737.69;;;14.52;63.89
69980;BME280;57318;56.232;43.944;2023-06-24T00:14:25;98737.88;;;14.51;64.71
69980;BME280;57318;56.232;43.944;2023-06-24T00:16:52;98732.84;;;14.48;65.04
69980;BME280;57318;56.232;43.944;2023-06-24T00:19:18;98734.19;;;14.43;64.66
69980;BME280;57318;56.232;43.944;2023-06-24T00:21:44;98726.84;;;14.37;64.64
69980;BME280;57318;56.232;43.944;2023-06-24T00:24:10;98728.84;;;14.35;65.44
69980;BME280;57318;56.232;43.944;2023-06-24T00:26:35;98730.81;;;14.33;65.99
69980;BME280;57318;56.232;43.944;2023-06-24T00:29:01;98729.19;;;14.32;65.87
69980;BME280;57318;56.232;43.944;2023-06-24T00:31:27;98724.16;;;14.29;65.03
69980;BME280;57318;56.232;43.944;2023-06-24T00:33:53;98722.63;;;14.26;65.49
69980;BME280;57318;56.232;43.944;2023-06-24T00:36:20;98719.13;;;14.26;65.04
69980;BME280;57318;56.232;43.944;2023-06-24T00:38:45;98718.13;;;14.27;64.98
69980;BME280;57318;56.232;43.944;2023-06-24T00:41:11;98715.63;;;14.25;65.38
69980;BME280;57318;56.232;43.944;2023-06-24T00:43:37;98713.09;;;14.24;65.27
69980;BME280;57318;56.232;43.944;2023-06-24T00:46:04;98719.47;;;14.23;65.86
69980;BME280;57318;56.232;43.944;2023-06-24T00:48:32;98720.47;;;14.22;66.82
69980;BME280;57318;56.232;43.944;2023-06-24T00:50:57;98709.94;;;14.20;66.81
69980;BME280;57318;56.232;43.944;2023-06-24T00:53:24;98712.78;;;14.19;67.35
69980;BME280;57318;56.232;43.944;2023-06-24T00:55:51;98715.44;;;14.19;67.53
69980;BME280;57318;56.232;43.944;2023-06-24T00:58:18;98713.59;;;14.19;67.64
69980;BME280;57318;56.232;43.944;2023-06-24T01:00:47;98710.75;;;14.21;67.71
69980;BME280;57318;56.232;43.944;2023-06-24T01:03:22;98709.94;;;14.20;67.46
69980;BME280;57318;56.232;43.944;2023-06-24T01:05:48;98719.47;;;14.23;66.66
69980;BME280;57318;56.232;43.944;2023-06-24T01:08:14;98712.94;;;14.25;66.53
69980;BME280;57318;56.232;43.944;2023-06-24T01:10:42;98709.44;;;14.25;67.08
69980;BME280;57318;56.232;43.944;2023-06-24T01:13:08;98714.78;;;14.25;67.57
69980;BME280;57318;56.232;43.944;2023-06-24T01:15:35;98716.78;;;14.23;66.70
69980;BME280;57318;56.232;43.944;2023-06-24T01:18:13;98711.63;;;14.21;65.81
69980;BME280;57318;56.232;43.944;2023-06-24T01:23:42;98711.44;;;14.23;65.48
69980;BME280;57318;56.232;43.944;2023-06-24T01:29:25;98720.47;;;14.22;65.38
69980;BME280;57318;56.232;43.944;2023-06-24T01:32:07;98714.28;;;14.21;65.50
69980;BME280;57318;56.232;43.944;2023-06-24T01:34:48;98714.13;;;14.23;66.37
69980;BME280;57318;56.232;43.944;2023-06-24T01:37:21;98723.78;;;14.24;65.54
69980;BME280;57318;56.232;43.944;2023-06-24T01:40:27;98717.47;;;14.25;64.42
69980;BME280;57318;56.232;43.944;2023-06-24T01:42:56;98726.13;;;14.27;64.69
69980;BME280;57318;56.232;43.944;2023-06-24T01:45:25;98723.47;;;14.27;65.00
69980;BME280;57318;56.232;43.944;2023-06-24T01:48:19;98718.97;;;14.28;66.02
69980;BME280;57318;56.232;43.944;2023-06-24T01:51:05;98724.47;;;14.26;65.81
69980;BME280;57318;56.232;43.944;2023-06-24T01:53:38;98721.66;;;14.28;65.76
69980;BME280;57318;56.232;43.944;2023-06-24T01:56:07;98711.78;;;14.28;66.18
69980;BME280;57318;56.232;43.944;2023-06-24T01:58:34;98709.94;;;14.29;65.29
69980;BME280;57318;56.232;43.944;2023-06-24T02:01:02;98714.13;;;14.31;66.15
69980;BME280;57318;56.232;43.944;2023-06-24T02:03:29;98707.78;;;14.32;65.97
69980;BME280;57318;56.232;43.944;2023-06-24T02:05:57;98710.31;;;14.34;65.78
69980;BME280;57318;56.232;43.944;2023-06-24T02:08:26;98708.13;;;14.37;65.46
69980;BME280;57318;56.232;43.944;2023-06-24T02:10:55;98710.97;;;14.44;66.09
69980;BME280;57318;56.232;43.944;2023-06-24T02:13:22;98716.81;;;14.48;66.88
69980;BME280;57318;56.232;43.944;2023-06-24T02:15:49;98716.47;;;14.51;67.19
69980;BME280;57318;56.232;43.944;2023-06-24T02:18:17;98715.16;;;14.47;66.18
69980;BME280;57318;56.232;43.944;2023-06-24T02:20:46;98719.81;;;14.44;66.74
69980;BME280;57318;56.232;43.944;2023-06-24T02:23:15;98715.81;;;14.40;66.46
69980;BME280;57318;56.232;43.944;2023-06-24T02:25:42;98722.31;;;14.38;67.00
69980;BME280;57318;56.232;43.944;2023-06-24T02:28:09;98719.31;;;14.33;66.69
69980;BME280;57318;56.232;43.944;2023-06-24T02:30:37;98725.47;;;14.33;67.36
69980;BME280;57318;56.232;43.944;2023-06-24T02:33:03;98722.16;;;14.31;67.14
69980;BME280;57318;56.232;43.944;2023-06-24T02:35:29;98721.16;;;14.32;66.99
69980;BME280;57318;56.232;43.944;2023-06-24T02:37:55;98727.31;;;14.33;67.04
69980;BME280;57318;56.232;43.944;2023-06-24T02:40:24;98720.81;;;14.35;67.48
69980;BME280;57318;56.232;43.944;2023-06-24T02:42:50;98728.84;;;14.35;67.90
69980;BME280;57318;56.232;43.944;2023-06-24T02:45:16;98732.19;;;14.37;68.46
69980;BME280;57318;56.232;43.944;2023-06-24T02:47:45;98730.84;;;14.41;68.57
69980;BME280;57318;56.232;43.944;2023-06-24T02:50:12;98727.00;;;14.44;68.67
69980;BME280;57318;56.232;43.944;2023-06-24T02:52:40;98734.84;;;14.46;68.49
69980;BME280;57318;56.232;43.944;2023-06-24T02:55:07;98732.50;;;14.51;68.43
69980;BME280;57318;56.232;43.944;2023-06-24T02:57:34;98736.38;;;14.56;68.36
69980;BME280;57318;56.232;43.944;2023-06-24T03:00:03;98743.13;;;14.60;68.08
69980;BME280;57318;56.232;43.944;2023-06-24T03:02:32;98741.25;;;14.61;68.74
69980;BME280;57318;56.232;43.944;2023-06-24T03:04:58;98747.28;;;14.63;69.34
69980;BME280;57318;56.232;43.944;2023-06-24T03:07:30;98737.44;;;14.64;68.65
69980;BME280;57318;56.232;43.944;2023-06-24T03:09:56;98744.75;;;14.61;68.99
69980;BME280;57318;56.232;43.944;2023-06-24T03:12:23;98734.22;;;14.60;69.05
69980;BME280;57318;56.232;43.944;2023-06-24T03:14:49;98743.22;;;14.51;69.69
69980;BME280;57318;56.232;43.944;2023-06-24T03:17:14;98741.88;;;14.47;70.14
69980;BME280;57318;56.232;43.944;2023-06-24T03:19:41;98745.88;;;14.42;70.36
69980;BME280;57318;56.232;43.944;2023-06-24T03:22:07;98741.19;;;14.36;70.74
69980;BME280;57318;56.232;43.944;2023-06-24T03:24:32;98730.16;;;14.31;71.29
69980;BME280;57318;56.232;43.944;2023-06-24T03:26:58;98739.66;;;14.25;71.59
69980;BME280;57318;56.232;43.944;2023-06-24T03:29:24;98739.16;;;14.22;72.50
69980;BME280;57318;56.232;43.944;2023-06-24T03:31:49;98733.13;;;14.12;72.29
69980;BME280;57318;56.232;43.944;2023-06-24T03:34:15;98727.75;;;14.03;72.99
69980;BME280;57318;56.232;43.944;2023-06-24T03:36:42;98733.75;;;13.97;73.02
69980;BME280;57318;56.232;43.944;2023-06-24T03:39:08;98734.06;;;13.94;73.68
69980;BME280;57318;56.232;43.944;2023-06-24T03:41:36;98739.72;;;13.91;74.05
69980;BME280;57318;56.232;43.944;2023-06-24T03:44:01;98742.88;;;13.86;74.59
69980;BME280;57318;56.232;43.944;2023-06-24T03:46:27;98740.41;;;13.85;75.02
69980;BME280;57318;56.232;43.944;2023-06-24T03:48:59;98741.06;;;13.87;75.55
69980;BME280;57318;56.232;43.944;2023-06-24T03:51:25;98734.19;;;13.84;75.54
69980;BME280;57318;56.232;43.944;2023-06-24T03:53:51;98731.84;;;13.81;75.85
69980;BME280;57318;56.232;43.944;2023-06-24T03:56:17;98740.66;;;13.74;76.02
69980;BME280;57318;56.232;43.944;2023-06-24T03:58:43;98737.66;;;13.68;76.08
69980;BME280;57318;56.232;43.944;2023-06-24T04:01:09;98736.28;;;13.64;76.81
69980;BME280;57318;56.232;43.944;2023-06-24T04:03:35;98733.91;;;13.53;76.98
69980;BME280;57318;56.232;43.944;2023-06-24T04:06:01;98729.81;;;13.41;77.00
69980;BME280;57318;56.232;43.944;2023-06-24T04:08:29;98734.44;;;13.30;77.78
69980;BME280;57318;56.232;43.944;2023-06-24T04:10:56;98731.00;;;13.20;78.67
69980;BME280;57318;56.232;43.944;2023-06-24T04:13:22;98740.34;;;13.16;79.08
69980;BME280;57318;56.232;43.944;2023-06-24T04:15:48;98736.00;;;13.15;79.23
69980;BME280;57318;56.232;43.944;2023-06-24T04:18:13;98726.47;;;13.12;79.77
69980;BME280;57318;56.232;43.944;2023-06-24T04:20:39;98726.78;;;13.09;79.70
69980;BME280;57318;56.232;43.944;2023-06-24T04:23:05;98727.94;;;13.07;79.72
69980;BME280;57318;56.232;43.944;2023-06-24T04:25:33;98729.69;;;12.98;80.04
69980;BME280;57318;56.232;43.944;2023-06-24T04:27:58;98724.69;;;12.95;80.21
69980;BME280;57318;56.232;43.944;2023-06-24T04:30:24;98732.84;;;12.93;80.49
69980;BME280;57318;56.232;43.944;2023-06-24T04:32:50;98728.81;;;12.89;80.11
69980;BME280;57318;56.232;43.944;2023-06-24T04:35:15;98721.44;;;12.83;80.38
69980;BME280;57318;56.232;43.944;2023-06-24T04:37:41;98726.94;;;12.81;80.46
69980;BME280;57318;56.232;43.944;2023-06-24T04:40:08;98721.75;;;12.80;80.95
69980;BME280;57318;56.232;43.944;2023-06-24T04:42:34;98710.88;;;12.73;81.17
69980;BME280;57318;56.232;43.944;2023-06-24T04:45:00;98711.03;;;12.72;81.48
69980;BME280;57318;56.232;43.944;2023-06-24T04:47:27;98715.19;;;12.74;81.96
69980;BME280;57318;56.232;43.944;2023-06-24T04:49:52;98712.38;;;12.76;81.95
69980;BME280;57318;56.232;43.944;2023-06-24T04:52:18;98705.53;;;12.73;81.78
69980;BME280;57318;56.232;43.944;2023-06-24T04:54:44;98711.84;;;12.72;82.22
69980;BME280;57318;56.232;43.944;2023-06-24T04:57:23;98709.03;;;12.74;82.06
69980;BME280;57318;56.232;43.944;2023-06-24T04:59:49;98704.38;;;12.76;82.06
69980;BME280;57318;56.232;43.944;2023-06-24T05:02:15;98705.53;;;12.73;82.12
69980;BME280;57318;56.232;43.944;2023-06-24T05:04:41;98711.84;;;12.72;81.87
69980;BME280;57318;56.232;43.944;2023-06-24T05:07:07;98708.06;;;12.75;81.93
69980;BME280;57318;56.232;43.944;2023-06-24T05:09:32;98694.88;;;12.73;81.76
69980;BME280;57318;56.232;43.944;2023-06-24T05:11:58;98695.19;;;12.70;81.81
69980;BME280;57318;56.232;43.944;2023-06-24T05:14:24;98701.34;;;12.71;81.89
69980;BME280;57318;56.232;43.944;2023-06-24T05:16:49;98703.34;;;12.69;81.44
69980;BME280;57318;56.232;43.944;2023-06-24T05:19:15;98707.28;;;12.64;81.70
69980;BME280;57318;56.232;43.944;2023-06-24T05:21:41;98710.56;;;12.58;81.89
69980;BME280;57318;56.232;43.944;2023-06-24T05:24:07;98714.22;;;12.57;81.45
69980;BME280;57318;56.232;43.944;2023-06-24T05:26:33;98709.91;;;12.56;81.67
69980;BME280;57318;56.232;43.944;2023-06-24T05:28:58;98703.19;;;12.52;81.89
69980;BME280;57318;56.232;43.944;2023-06-24T05:31:24;98695.34;;;12.51;82.45
69980;BME280;57318;56.232;43.944;2023-06-24T05:33:50;98704.00;;;12.53;82.61
69980;BME280;57318;56.232;43.944;2023-06-24T05:36:16;98695.88;;;12.54;82.36
69980;BME280;57318;56.232;43.944;2023-06-24T05:38:41;98693.34;;;12.53;82.51
69980;BME280;57318;56.232;43.944;2023-06-24T05:41:07;98695.41;;;12.59;82.72
69980;BME280;57318;56.232;43.944;2023-06-24T05:43:33;98691.28;;;12.64;82.48
69980;BME280;57318;56.232;43.944;2023-06-24T05:45:58;98694.63;;;12.67;82.17
69980;BME280;57318;56.232;43.944;2023-06-24T05:48:24;98692.38;;;12.72;81.85
69980;BME280;57318;56.232;43.944;2023-06-24T05:50:50;98688.84;;;12.71;81.79
69980;BME280;57318;56.232;43.944;2023-06-24T05:53:15;98686.53;;;12.76;82.02
69980;BME280;57318;56.232;43.944;2023-06-24T05:55:41;98692.06;;;12.75;81.30
69980;BME280;57318;56.232;43.944;2023-06-24T05:58:07;98689.22;;;12.76;81.35
69980;BME280;57318;56.232;43.944;2023-06-24T06:00:36;98688.22;;;12.77;81.43
69980;BME280;57318;56.232;43.944;2023-06-24T06:03:01;98681.28;;;12.85;81.11
69980;BME280;57318;56.232;43.944;2023-06-24T06:05:27;98694.50;;;12.94;81.19
69980;BME280;57318;56.232;43.944;2023-06-24T06:07:53;98687.34;;;12.95;80.45
69980;BME280;57318;56.232;43.944;2023-06-24T06:10:19;98690.91;;;13.04;80.60
69980;BME280;57318;56.232;43.944;2023-06-24T06:12:45;98696.75;;;13.07;80.10
69980;BME280;57318;56.232;43.944;2023-06-24T06:15:11;98682.47;;;13.16;80.04
69980;BME280;57318;56.232;43.944;2023-06-24T06:17:37;98680.31;;;13.20;79.59
69980;BME280;57318;56.232;43.944;2023-06-24T06:20:03;98679.66;;;13.18;79.43
69980;BME280;57318;56.232;43.944;2023-06-24T06:22:30;98677.63;;;13.12;79.63
69980;BME280;57318;56.232;43.944;2023-06-24T06:24:57;98685.25;;;13.07;79.48
69980;BME280;57318;56.232;43.944;2023-06-24T06:27:23;98690.56;;;12.98;79.53
69980;BME280;57318;56.232;43.944;2023-06-24T06:29:48;98683.06;;;13.02;79.64
69980;BME280;57318;56.232;43.944;2023-06-24T06:32:14;98683.22;;;13.00;80.03
69980;BME280;57318;56.232;43.944;2023-06-24T06:34:40;98680.34;;;12.94;79.74
69980;BME280;57318;56.232;43.944;2023-06-24T06:37:06;98683.50;;;12.89;80.62
69980;BME280;57318;56.232;43.944;2023-06-24T06:39:31;98678.81;;;12.91;80.26
69980;BME280;57318;56.232;43.944;2023-06-24T06:41:57;98685.44;;;13.05;80.79
69980;BME280;57318;56.232;43.944;2023-06-24T06:44:23;98686.69;;;13.19;80.30
69980;BME280;57318;56.232;43.944;2023-06-24T06:46:49;98685.19;;;13.25;79.51
69980;BME280;57318;56.232;43.944;2023-06-24T06:49:14;98680.91;;;13.32;79.23
69980;BME280;57318;56.232;43.944;2023-06-24T06:51:40;98683.44;;;13.33;78.75
69980;BME280;57318;56.232;43.944;2023-06-24T06:54:06;98683.72;;;13.30;78.94
69980;BME280;57318;56.232;43.944;2023-06-24T06:56:31;98696.66;;;13.17;78.57
69980;BME280;57318;56.232;43.944;2023-06-24T06:58:57;98699.63;;;13.14;78.89
69980;BME280;57318;56.232;43.944;2023-06-24T07:01:23;98693.41;;;13.05;78.69
69980;BME280;57318;56.232;43.944;2023-06-24T07:03:49;98716.69;;;12.95;79.51
69980;BME280;57318;56.232;43.944;2023-06-24T07:06:15;98713.50;;;12.91;79.61
69980;BME280;57318;56.232;43.944;2023-06-24T07:08:42;98704.88;;;12.97;79.60
69980;BME280;57318;56.232;43.944;2023-06-24T07:11:08;98705.22;;;13.03;80.27
69980;BME280;57318;56.232;43.944;2023-06-24T07:13:34;98707.28;;;13.09;80.28
69980;BME280;57318;56.232;43.944;2023-06-24T07:15:59;98708.81;;;13.11;79.70
69980;BME280;57318;56.232;43.944;2023-06-24T07:18:25;98704.97;;;13.14;79.63
69980;BME280;57318;56.232;43.944;2023-06-24T07:20:56;98701.16;;;13.16;79.98
69980;BME280;57318;56.232;43.944;2023-06-24T07:23:21;98705.13;;;13.12;80.02
69980;BME280;57318;56.232;43.944;2023-06-24T07:25:47;98709.28;;;13.07;80.10
69980;BME280;57318;56.232;43.944;2023-06-24T07:28:13;98717.28;;;12.89;80.19
69980;BME280;57318;56.232;43.944;2023-06-24T07:30:40;98704.53;;;12.74;80.71
69980;BME280;57318;56.232;43.944;2023-06-24T07:33:07;98717.09;;;12.82;81.43
69980;BME280;57318;56.232;43.944;2023-06-24T07:35:33;98710.16;;;12.89;81.37
69980;BME280;57318;56.232;43.944;2023-06-24T07:37:59;98708.16;;;12.91;81.33
69980;BME280;57318;56.232;43.944;2023-06-24T07:40:25;98712.81;;;12.89;80.98
69980;BME280;57318;56.232;43.944;2023-06-24T07:42:51;98710.47;;;12.86;80.81
69980;BME280;57318;56.232;43.944;2023-06-24T07:45:17;98714.13;;;12.85;81.10
69980;BME280;57318;56.232;43.944;2023-06-24T07:47:42;98706.47;;;12.90;81.23
69980;BME280;57318;56.232;43.944;2023-06-24T07:50:08;98708.53;;;12.96;81.69
69980;BME280;57318;56.232;43.944;2023-06-24T07:52:37;98714.59;;;13.07;81.61
69980;BME280;57318;56.232;43.944;2023-06-24T07:55:03;98719.63;;;13.10;81.21
69980;BME280;57318;56.232;43.944;2023-06-24T07:57:30;98722.34;;;13.18;80.63
69980;BME280;57318;56.232;43.944;2023-06-24T07:59:55;98723.91;;;13.29;80.25
69980;BME280;57318;56.232;43.944;2023-06-24T08:02:21;98726.50;;;13.39;79.38
69980;BME280;57318;56.232;43.944;2023-06-24T08:04:47;98731.38;;;13.51;79.14
69980;BME280;57318;56.232;43.944;2023-06-24T08:07:13;98731.06;;;13.54;78.52
69980;BME280;57318;56.232;43.944;2023-06-24T08:09:38;98726.25;;;13.58;79.15
69980;BME280;57318;56.232;43.944;2023-06-24T08:12:04;98722.91;;;13.56;78.57
69980;BME280;57318;56.232;43.944;2023-06-24T08:14:30;98727.75;;;13.61;78.46
69980;BME280;57318;56.232;43.944;2023-06-24T08:16:56;98725.91;;;13.61;77.99
69980;BME280;57318;56.232;43.944;2023-06-24T08:19:21;98730.78;;;13.66;76.87
69980;BME280;57318;56.232;43.944;2023-06-24T08:21:47;98720.81;;;13.68;77.07
69980;BME280;57318;56.232;43.944;2023-06-24T08:24:13;98723.66;;;13.75;77.74
69980;BME280;57318;56.232;43.944;2023-06-24T08:26:39;98723.69;;;13.83;78.46
69980;BME280;57318;56.232;43.944;2023-06-24T08:29:04;98709.66;;;13.81;76.96
69980;BME280;57318;56.232;43.944;2023-06-24T08:31:33;98716.72;;;13.98;76.88
69980;BME280;57318;56.232;43.944;2023-06-24T08:33:59;98710.91;;;14.11;76.76
69980;BME280;57318;56.232;43.944;2023-06-24T08:36:27;98713.09;;;14.16;75.87
69980;BME280;57318;56.232;43.944;2023-06-24T08:38:54;98707.31;;;14.37;76.41
69980;BME280;57318;56.232;43.944;2023-06-24T08:41:20;98707.47;;;14.43;74.61
69980;BME280;57318;56.232;43.944;2023-06-24T08:43:46;98709.81;;;14.47;73.14
69980;BME280;57318;56.232;43.944;2023-06-24T08:46:13;98710.63;;;14.55;73.79
69980;BME280;57318;56.232;43.944;2023-06-24T08:48:43;98711.84;;;14.61;73.45
69980;BME280;57318;56.232;43.944;2023-06-24T08:51:11;98710.38;;;14.67;72.42
69980;BME280;57318;56.232;43.944;2023-06-24T08:53:42;98702.34;;;14.75;72.63
69980;BME280;57318;56.232;43.944;2023-06-24T08:56:08;98715.38;;;14.78;71.73
69980;BME280;57318;56.232;43.944;2023-06-24T08:58:35;98712.34;;;14.81;71.38
69980;BME280;57318;56.232;43.944;2023-06-24T09:01:01;98709.66;;;14.89;71.84
69980;BME280;57318;56.232;43.944;2023-06-24T09:03:27;98725.38;;;14.92;71.64
69980;BME280;57318;56.232;43.944;2023-06-24T09:05:53;98726.91;;;14.95;72.56
69980;BME280;57318;56.232;43.944;2023-06-24T09:08:19;98721.38;;;14.96;71.96
69980;BME280;57318;56.232;43.944;2023-06-24T09:10:53;98728.41;;;14.89;71.58
69980;BME280;57318;56.232;43.944;2023-06-24T09:13:33;98717.19;;;14.77;71.72
69980;BME280;57318;56.232;43.944;2023-06-24T09:16:10;98721.88;;;14.67;72.74
69980;BME280;57318;56.232;43.944;2023-06-24T09:18:36;98728.19;;;14.58;73.17
69980;BME280;57318;56.232;43.944;2023-06-24T09:21:02;98727.72;;;14.63;73.80
69980;BME280;57318;56.232;43.944;2023-06-24T09:23:28;98725.19;;;14.53;74.01
69980;BME280;57318;56.232;43.944;2023-06-24T09:25:56;98723.19;;;14.47;74.48
69980;BME280;57318;56.232;43.944;2023-06-24T09:28:26;98734.19;;;14.43;74.84
69980;BME280;57318;56.232;43.944;2023-06-24T09:31:08;98738.19;;;14.39;74.51
69980;BME280;57318;56.232;43.944;2023-06-24T09:33:34;98738.84;;;14.33;75.05
69980;BME280;57318;56.232;43.944;2023-06-24T09:36:03;98737.53;;;14.37;75.52
69980;BME280;57318;56.232;43.944;2023-06-24T09:38:35;98732.34;;;14.44;76.56
69980;BME280;57318;56.232;43.944;2023-06-24T09:41:03;98737.88;;;14.42;76.70
69980;BME280;57318;56.232;43.944;2023-06-24T09:43:30;98732.69;;;14.41;76.10
69980;BME280;57318;56.232;43.944;2023-06-24T09:46:00;98727.81;;;14.36;76.50
69980;BME280;57318;56.232;43.944;2023-06-24T09:48:26;98729.84;;;14.51;76.78
69980;BME280;57318;56.232;43.944;2023-06-24T09:50:59;98726.41;;;14.75;76.38
69980;BME280;57318;56.232;43.944;2023-06-24T09:53:30;98719.88;;;14.94;75.14
69980;BME280;57318;56.232;43.944;2023-06-24T09:55:56;98723.00;;;15.06;73.51
69980;BME280;57318;56.232;43.944;2023-06-24T09:58:23;98729.69;;;15.18;73.29
69980;BME280;57318;56.232;43.944;2023-06-24T10:00:49;98725.81;;;15.45;73.16
69980;BME280;57318;56.232;43.944;2023-06-24T10:03:16;98727.75;;;15.60;71.88
69980;BME280;57318;56.232;43.944;2023-06-24T10:05:42;98732.16;;;15.92;71.99
69980;BME280;57318;56.232;43.944;2023-06-24T10:08:09;98719.03;;;16.05;70.59
69980;BME280;57318;56.232;43.944;2023-06-24T10:10:35;98730.47;;;16.31;68.89
69980;BME280;57318;56.232;43.944;2023-06-24T10:13:01;98722.13;;;16.49;68.81
69980;BME280;57318;56.232;43.944;2023-06-24T10:15:27;98727.59;;;16.78;68.02
69980;BME280;57318;56.232;43.944;2023-06-24T10:17:53;98728.03;;;16.90;67.53
69980;BME280;57318;56.232;43.944;2023-06-24T10:20:25;98731.53;;;16.91;66.53
69980;BME280;57318;56.232;43.944;2023-06-24T10:22:51;98737.88;;;16.98;66.90
69980;BME280;57318;56.232;43.944;2023-06-24T10:25:17;98733.66;;;17.19;65.31
69980;BME280;57318;56.232;43.944;2023-06-24T10:27:44;98731.63;;;17.50;64.73
69980;BME280;57318;56.232;43.944;2023-06-24T10:30:19;98739.22;;;17.62;63.69
69980;BME280;57318;56.232;43.944;2023-06-24T10:32:51;98730.13;;;17.78;63.03
69980;BME280;57318;56.232;43.944;2023-06-24T10:35:23;98737.66;;;17.97;62.67
69980;BME280;57318;56.232;43.944;2023-06-24T10:38:00;98734.41;;;18.02;62.08
69980;BME280;57318;56.232;43.944;2023-06-24T10:40:36;98740.97;;;17.84;62.03
69980;BME280;57318;56.232;43.944;2023-06-24T10:43:24;98752.59;;;17.70;62.32
69980;BME280;57318;56.232;43.944;2023-06-24T10:45:53;98748.78;;;17.64;62.74
69980;BME280;57318;56.232;43.944;2023-06-24T10:48:19;98745.63;;;17.61;62.92
69980;BME280;57318;56.232;43.944;2023-06-24T10:50:48;98756.34;;;17.46;62.90
69980;BME280;57318;56.232;43.944;2023-06-24T10:53:15;98754.50;;;17.61;62.97
69980;BME280;57318;56.232;43.944;2023-06-24T10:55:43;98752.22;;;17.88;62.24
69980;BME280;57318;56.232;43.944;2023-06-24T10:58:10;98755.84;;;18.32;60.44
69980;BME280;57318;56.232;43.944;2023-06-24T11:00:37;98759.13;;;18.85;58.93
69980;BME280;57318;56.232;43.944;2023-06-24T11:03:16;98756.25;;;19.43;57.49
69980;BME280;57318;56.232;43.944;2023-06-24T11:05:45;98743.41;;;20.22;55.00
69980;BME280;57318;56.232;43.944;2023-06-24T11:08:11;98745.25;;;21.03;53.02
69980;BME280;57318;56.232;43.944;2023-06-24T11:10:47;98750.63;;;21.17;51.10
69980;BME280;57318;56.232;43.944;2023-06-24T11:13:13;98749.38;;;21.33;50.77
69980;BME280;57318;56.232;43.944;2023-06-24T11:15:39;98749.50;;;21.85;49.37
69980;BME280;57318;56.232;43.944;2023-06-24T11:18:10;98750.25;;;22.12;49.06
69980;BME280;57318;56.232;43.944;2023-06-24T11:20:36;98751.47;;;22.16;47.60
69980;BME280;57318;56.232;43.944;2023-06-24T11:23:06;98749.06;;;21.88;48.45
69980;BME280;57318;56.232;43.944;2023-06-24T11:25:41;98756.50;;;21.99;48.11
69980;BME280;57318;56.232;43.944;2023-06-24T11:28:18;98750.38;;;21.72;48.37
69980;BME280;57318;56.232;43.944;2023-06-24T11:30:44;98749.97;;;21.35;48.82
69980;BME280;57318;56.232;43.944;2023-06-24T11:33:10;98747.91;;;21.23;49.24
69980;BME280;57318;56.232;43.944;2023-06-24T11:35:36;98745.03;;;20.91;49.92
69980;BME280;57318;56.232;43.944;2023-06-24T11:38:02;98741.28;;;20.86;49.74
69980;BME280;57318;56.232;43.944;2023-06-24T11:40:30;98752.28;;;20.78;50.12
69980;BME280;57318;56.232;43.944;2023-06-24T11:42:57;98743.56;;;20.69;50.07
69980;BME280;57318;56.232;43.944;2023-06-24T11:45:25;98750.69;;;20.22;50.50
69980;BME280;57318;56.232;43.944;2023-06-24T11:47:50;98761.81;;;19.70;51.82
69980;BME280;57318;56.232;43.944;2023-06-24T11:50:17;98759.50;;;19.04;52.90
69980;BME280;57318;56.232;43.944;2023-06-24T11:52:49;98758.75;;;18.73;54.82
69980;BME280;57318;56.232;43.944;2023-06-24T11:55:21;98758.09;;;18.50;54.86
69980;BME280;57318;56.232;43.944;2023-06-24T11:58:00;98762.88;;;18.33;55.98
69980;BME280;57318;56.232;43.944;2023-06-24T12:00:40;98760.66;;;18.36;55.72
69980;BME280;57318;56.232;43.944;2023-06-24T12:03:09;98749.28;;;18.78;54.37
69980;BME280;57318;56.232;43.944;2023-06-24T12:05:36;98757.69;;;18.68;54.72
69980;BME280;57318;56.232;43.944;2023-06-24T12:08:04;98754.03;;;18.75;54.75
69980;BME280;57318;56.232;43.944;2023-06-24T12:10:31;98762.22;;;18.67;55.29
69980;BME280;57318;56.232;43.944;2023-06-24T12:12:59;98757.41;;;18.63;54.89
69980;BME280;57318;56.232;43.944;2023-06-24T12:15:26;98758.25;;;18.63;55.19
69980;BME280;57318;56.232;43.944;2023-06-24T12:17:52;98753.47;;;18.44;55.66
69980;BME280;57318;56.232;43.944;2023-06-24T12:20:17;98748.41;;;18.34;55.96
69980;BME280;57318;56.232;43.944;2023-06-24T12:22:45;98763.56;;;18.20;56.35
69980;BME280;57318;56.232;43.944;2023-06-24T12:25:13;98759.22;;;18.19;56.31
69980;BME280;57318;56.232;43.944;2023-06-24T12:27:39;98761.91;;;18.19;56.35
69980;BME280;57318;56.232;43.944;2023-06-24T12:30:08;98763.50;;;18.13;56.39
69980;BME280;57318;56.232;43.944;2023-06-24T12:32:35;98754.22;;;18.01;56.67
69980;BME280;57318;56.232;43.944;2023-06-24T12:35:01;98756.72;;;17.73;57.01
69980;BME280;57318;56.232;43.944;2023-06-24T12:37:34;98756.63;;;17.51;57.39
69980;BME280;57318;56.232;43.944;2023-06-24T12:40:01;98749.22;;;17.38;57.94
69980;BME280;57318;56.232;43.944;2023-06-24T12:42:31;98759.94;;;17.23;58.06
69980;BME280;57318;56.232;43.944;2023-06-24T12:44:57;98759.00;;;17.16;58.40
69980;BME280;57318;56.232;43.944;2023-06-24T12:47:23;98750.75;;;17.18;58.40
69980;BME280;57318;56.232;43.944;2023-06-24T12:49:49;98750.22;;;17.22;58.30
69980;BME280;57318;56.232;43.944;2023-06-24T12:52:15;98754.31;;;17.18;58.02
69980;BME280;57318;56.232;43.944;2023-06-24T12:54:41;98764.16;;;17.03;58.70
69980;BME280;57318;56.232;43.944;2023-06-24T12:57:07;98760.13;;;16.75;59.22
69980;BME280;57318;56.232;43.944;2023-06-24T12:59:33;98753.22;;;16.58;60.05